createdAt,value
2023-05-20T00:00:15.373Z,9.70
2023-05-20T00:03:02.620Z,9.80
2023-05-20T00:05:30.159Z,9.60
2023-05-20T00:07:57.606Z,9.60
2023-05-20T00:10:25.072Z,9.50
2023-05-20T00:12:52.262Z,9.40
2023-05-20T00:15:19.830Z,9.30
2023-05-20T00:17:47.690Z,9.30
2023-05-20T00:20:15.802Z,9.40
2023-05-20T00:22:43.081Z,9.40
2023-05-20T00:25:10.398Z,9.40
2023-05-20T00:27:37.737Z,9.30
2023-05-20T00:30:05.979Z,9.20
2023-05-20T00:32:34.047Z,9.30
2023-05-20T00:35:02.102Z,9.40
2023-05-20T00:37:29.627Z,9.50
2023-05-20T00:39:57.104Z,9.60
2023-05-20T00:42:26.003Z,9.70
2023-05-20T00:44:54.455Z,9.70
2023-05-20T00:47:27.107Z,9.60
2023-05-20T00:49:55.361Z,9.60
2023-05-20T00:52:23.060Z,9.60
2023-05-20T00:54:51.788Z,9.40
2023-05-20T00:57:20.780Z,9.40
2023-05-20T00:59:48.174Z,9.40
2023-05-20T01:02:16.331Z,9.40
2023-05-20T01:04:47.558Z,9.50
2023-05-20T01:07:19.005Z,9.50
2023-05-20T01:09:46.684Z,9.50
2023-05-20T01:12:21.034Z,9.40
2023-05-20T01:14:51.198Z,9.40
2023-05-20T01:17:21.217Z,9.50
2023-05-20T01:19:49.445Z,9.50
2023-05-20T01:22:17.755Z,9.50
2023-05-20T01:24:48.603Z,9.60
2023-05-20T01:27:15.919Z,9.60
2023-05-20T01:29:44.445Z,9.50
2023-05-20T01:32:24.138Z,9.40
2023-05-20T01:34:53.204Z,9.60
2023-05-20T01:37:21.983Z,9.70
2023-05-20T01:39:51.084Z,9.70
2023-05-20T01:42:21.355Z,9.70
2023-05-20T01:44:48.862Z,9.70
2023-05-20T01:47:16.259Z,9.70
2023-05-20T01:49:43.617Z,9.50
2023-05-20T01:52:10.851Z,9.30
2023-05-20T01:54:38.169Z,9.40
2023-05-20T01:57:05.582Z,9.50
2023-05-20T01:59:33.405Z,9.50
2023-05-20T02:02:00.707Z,9.60
2023-05-20T02:04:28.123Z,9.80
2023-05-20T02:06:56.061Z,9.90
2023-05-20T02:09:23.415Z,10.10
2023-05-20T02:11:50.770Z,10.20
2023-05-20T02:14:18.045Z,10.30
2023-05-20T02:16:47.100Z,10.50
2023-05-20T02:19:14.520Z,10.40
2023-05-20T02:21:42.865Z,10.40
2023-05-20T02:24:10.124Z,10.50
2023-05-20T02:26:37.778Z,10.50
2023-05-20T02:29:05.225Z,10.50
2023-05-20T02:31:32.683Z,10.50
2023-05-20T02:34:00.080Z,10.40
2023-05-20T02:36:28.115Z,10.40
2023-05-20T02:38:56.989Z,10.60
2023-05-20T02:41:24.448Z,10.50
2023-05-20T02:43:51.632Z,10.60
2023-05-20T02:46:20.025Z,10.50
2023-05-20T02:48:47.448Z,10.60
2023-05-20T02:51:14.818Z,10.60
2023-05-20T02:53:42.058Z,10.50
2023-05-20T02:56:09.403Z,10.60
2023-05-20T02:58:37.424Z,10.70
2023-05-20T03:01:04.698Z,10.70
2023-05-20T03:03:32.716Z,10.80
2023-05-20T03:06:00.050Z,10.70
2023-05-20T03:08:27.354Z,10.80
2023-05-20T03:10:54.762Z,10.80
2023-05-20T03:13:22.633Z,10.90
2023-05-20T03:15:49.880Z,10.80
2023-05-20T03:18:17.435Z,10.80
2023-05-20T03:20:44.909Z,10.90
2023-05-20T03:23:12.337Z,10.90
2023-05-20T03:25:40.894Z,11.00
2023-05-20T03:28:08.187Z,11.00
2023-05-20T03:30:35.444Z,11.10
2023-05-20T03:33:03.278Z,11.00
2023-05-20T03:35:30.605Z,11.10
2023-05-20T03:37:58.919Z,11.00
2023-05-20T03:40:26.301Z,11.10
2023-05-20T03:42:53.725Z,11.20
2023-05-20T03:45:21.141Z,11.10
2023-05-20T03:47:48.656Z,11.10
2023-05-20T03:50:16.073Z,11.20
2023-05-20T03:52:43.428Z,11.30
2023-05-20T03:55:10.912Z,11.30
2023-05-20T03:57:38.621Z,11.30
2023-05-20T04:00:11.578Z,11.40
2023-05-20T04:02:38.955Z,11.40
2023-05-20T04:05:09.051Z,11.50
2023-05-20T04:07:36.475Z,11.50
2023-05-20T04:10:05.532Z,11.50
2023-05-20T04:12:32.908Z,11.60
2023-05-20T04:15:03.469Z,11.60
2023-05-20T04:17:31.540Z,11.60
2023-05-20T04:20:02.155Z,11.70
2023-05-20T04:22:29.407Z,11.70
2023-05-20T04:24:56.807Z,11.70
2023-05-20T04:27:24.775Z,11.70
2023-05-20T04:29:52.608Z,11.70
2023-05-20T04:32:19.994Z,11.80
2023-05-20T04:34:48.288Z,11.80
2023-05-20T04:37:16.084Z,11.90
2023-05-20T04:39:43.813Z,11.90
2023-05-20T04:42:11.027Z,11.90
2023-05-20T04:44:41.703Z,12.00
2023-05-20T04:47:09.502Z,12.00
2023-05-20T04:49:37.012Z,12.00
2023-05-20T04:52:05.195Z,12.10
2023-05-20T04:55:06.953Z,12.20
2023-05-20T04:57:35.528Z,12.20
2023-05-20T05:00:02.817Z,12.30
2023-05-20T05:02:30.161Z,12.40
2023-05-20T05:04:57.663Z,12.40
2023-05-20T05:07:25.071Z,12.50
2023-05-20T05:09:52.410Z,12.50
2023-05-20T05:12:19.659Z,12.60
2023-05-20T05:14:46.906Z,12.60
2023-05-20T05:17:14.251Z,12.80
2023-05-20T05:19:41.629Z,12.80
2023-05-20T05:22:08.813Z,12.70
2023-05-20T05:24:36.229Z,12.80
2023-05-20T05:27:03.650Z,12.70
2023-05-20T05:29:31.146Z,12.90
2023-05-20T05:31:58.440Z,12.90
2023-05-20T05:34:25.751Z,13.10
2023-05-20T05:36:53.115Z,13.00
2023-05-20T05:39:21.074Z,12.90
2023-05-20T05:41:48.528Z,13.00
2023-05-20T05:44:16.048Z,13.00
2023-05-20T05:46:43.412Z,12.80
2023-05-20T05:49:10.652Z,12.90
2023-05-20T05:51:39.104Z,12.90
2023-05-20T05:54:06.509Z,12.90
2023-05-20T05:56:33.944Z,12.90
2023-05-20T05:59:01.341Z,13.00
2023-05-20T06:01:28.947Z,13.00
2023-05-20T06:03:56.547Z,13.10
2023-05-20T06:06:23.976Z,13.00
2023-05-20T06:08:51.328Z,13.00
2023-05-20T06:11:18.584Z,13.20
2023-05-20T06:13:46.088Z,13.00
2023-05-20T06:16:13.847Z,13.00
2023-05-20T06:18:41.364Z,13.10
2023-05-20T06:21:08.902Z,13.20
2023-05-20T06:23:36.190Z,13.10
2023-05-20T06:26:03.781Z,13.20
2023-05-20T06:28:31.316Z,13.50
2023-05-20T06:30:58.667Z,13.60
2023-05-20T06:33:27.106Z,13.70
2023-05-20T06:35:59.314Z,13.80
2023-05-20T06:38:26.466Z,13.70
2023-05-20T06:40:53.810Z,13.40
2023-05-20T06:43:23.362Z,13.40
2023-05-20T06:45:51.042Z,13.60
2023-05-20T06:48:18.227Z,13.70
2023-05-20T06:50:45.939Z,13.60
2023-05-20T06:53:13.490Z,13.60
2023-05-20T06:55:40.827Z,13.80
2023-05-20T06:58:08.232Z,14.00
2023-05-20T07:00:35.603Z,13.90
2023-05-20T07:03:02.889Z,13.70
2023-05-20T07:05:30.326Z,13.80
2023-05-20T07:07:57.945Z,13.50
2023-05-20T07:10:25.388Z,13.60
2023-05-20T07:12:52.656Z,13.80
2023-05-20T07:15:19.883Z,14.00
2023-05-20T07:17:47.139Z,13.90
2023-05-20T07:20:14.465Z,13.70
2023-05-20T07:22:41.714Z,14.00
2023-05-20T07:25:09.189Z,14.20
2023-05-20T07:27:37.046Z,14.20
2023-05-20T07:30:04.786Z,14.20
2023-05-20T07:32:32.062Z,14.30
2023-05-20T07:34:59.393Z,14.20
2023-05-20T07:37:26.662Z,14.00
2023-05-20T07:39:53.973Z,14.00
2023-05-20T07:42:21.463Z,14.20
2023-05-20T07:44:48.859Z,14.20
2023-05-20T07:47:16.139Z,14.10
2023-05-20T07:49:45.327Z,14.20
2023-05-20T07:52:12.557Z,14.20
2023-05-20T07:54:39.804Z,14.20
2023-05-20T07:57:07.231Z,14.60
2023-05-20T07:59:34.520Z,14.50
2023-05-20T08:02:01.935Z,14.50
2023-05-20T08:04:29.638Z,14.40
2023-05-20T08:06:57.231Z,14.70
2023-05-20T08:09:24.868Z,14.80
2023-05-20T08:11:52.335Z,14.60
2023-05-20T08:14:19.603Z,15.20
2023-05-20T08:16:46.976Z,15.90
2023-05-20T08:19:14.466Z,15.80
2023-05-20T08:21:41.709Z,15.60
2023-05-20T08:24:08.975Z,15.20
2023-05-20T08:26:36.348Z,15.10
2023-05-20T08:29:03.720Z,15.00
2023-05-20T08:31:31.042Z,15.20
2023-05-20T08:33:58.509Z,15.50
2023-05-20T08:36:26.057Z,15.80
2023-05-20T08:38:53.333Z,16.00
2023-05-20T08:41:22.619Z,16.10
2023-05-20T08:43:51.513Z,15.90
2023-05-20T08:46:20.256Z,16.20
2023-05-20T08:48:48.365Z,16.30
2023-05-20T08:51:18.097Z,16.60
2023-05-20T08:53:46.509Z,16.20
2023-05-20T08:56:15.629Z,16.10
2023-05-20T08:58:43.609Z,16.20
2023-05-20T09:01:11.581Z,16.00
2023-05-20T09:03:38.804Z,16.20
2023-05-20T09:06:09.750Z,16.00
2023-05-20T09:08:37.430Z,16.30
2023-05-20T09:11:04.801Z,16.00
2023-05-20T09:13:35.084Z,15.80
2023-05-20T09:16:03.229Z,16.00
2023-05-20T09:18:30.711Z,15.90
2023-05-20T09:20:58.128Z,16.30
2023-05-20T09:23:26.425Z,16.20
2023-05-20T09:25:53.871Z,16.20
2023-05-20T09:28:25.832Z,16.20
2023-05-20T09:30:59.289Z,16.30
2023-05-20T09:33:32.262Z,16.20
2023-05-20T09:36:08.901Z,16.20
2023-05-20T09:38:40.598Z,16.20
2023-05-20T09:41:11.656Z,15.90
2023-05-20T09:43:42.667Z,15.90
2023-05-20T09:46:11.169Z,15.80
2023-05-20T09:48:38.800Z,16.20
2023-05-20T09:51:07.465Z,16.80
2023-05-20T09:53:34.889Z,17.70
2023-05-20T09:56:02.160Z,18.10
2023-05-20T09:58:30.497Z,18.40
2023-05-20T10:00:57.951Z,17.90
2023-05-20T10:03:28.439Z,17.60
2023-05-20T10:06:25.860Z,17.00
2023-05-20T10:09:07.658Z,16.80
2023-05-20T10:11:45.686Z,17.10
2023-05-20T10:14:44.239Z,17.60
2023-05-20T10:17:25.586Z,16.80
2023-05-20T10:19:59.011Z,17.20
2023-05-20T10:22:31.709Z,17.60
2023-05-20T10:25:00.788Z,17.70
2023-05-20T10:27:28.139Z,17.60
2023-05-20T10:32:25.539Z,17.40
2023-05-20T10:34:53.164Z,17.30
2023-05-20T10:37:28.131Z,17.20
2023-05-20T10:40:08.750Z,17.30
2023-05-20T10:42:36.035Z,17.60
2023-05-20T10:45:04.268Z,17.60
2023-05-20T10:47:32.051Z,17.40
2023-05-20T10:49:59.575Z,17.20
2023-05-20T10:52:26.931Z,17.50
2023-05-20T10:54:54.643Z,17.60
2023-05-20T10:57:22.724Z,17.40
2023-05-20T10:59:51.465Z,17.60
2023-05-20T11:02:19.927Z,18.10
2023-05-20T11:04:47.785Z,17.90
2023-05-20T11:07:31.656Z,17.80
2023-05-20T11:09:59.223Z,18.00
2023-05-20T11:12:27.891Z,17.70
2023-05-20T11:14:55.304Z,17.90
2023-05-20T11:17:22.594Z,17.80
2023-05-20T11:19:51.130Z,17.80
2023-05-20T11:22:18.541Z,17.90
2023-05-20T11:24:46.813Z,18.00
2023-05-20T11:27:14.278Z,18.10
2023-05-20T11:29:42.317Z,18.60
2023-05-20T11:32:09.648Z,19.20
2023-05-20T11:34:38.272Z,19.70
2023-05-20T11:37:10.408Z,19.80
2023-05-20T11:39:38.253Z,19.70
2023-05-20T11:42:06.510Z,19.70
2023-05-20T11:44:34.338Z,19.70
2023-05-20T11:47:03.491Z,19.80
2023-05-20T11:49:31.278Z,19.70
2023-05-20T11:51:58.957Z,19.90
2023-05-20T11:54:26.494Z,19.60
2023-05-20T11:56:55.534Z,20.10
2023-05-20T11:59:25.068Z,20.30
2023-05-20T12:01:52.511Z,20.80
2023-05-20T12:04:19.782Z,20.90
2023-05-20T12:06:47.912Z,20.90
2023-05-20T12:09:15.210Z,20.80
2023-05-20T12:11:42.636Z,20.70
2023-05-20T12:14:10.146Z,20.30
2023-05-20T12:16:38.392Z,19.80
2023-05-20T12:19:06.108Z,20.10
2023-05-20T12:21:33.882Z,20.20
2023-05-20T12:24:01.259Z,20.00
2023-05-20T12:26:30.070Z,19.40
2023-05-20T12:28:57.618Z,19.30
2023-05-20T12:31:25.875Z,19.50
2023-05-20T12:33:53.271Z,19.40
2023-05-20T12:36:20.867Z,19.40
2023-05-20T12:38:48.343Z,19.60
2023-05-20T12:41:15.629Z,20.10
2023-05-20T12:43:43.043Z,20.10
2023-05-20T12:46:10.572Z,19.70
2023-05-20T12:48:39.510Z,20.20
2023-05-20T12:51:08.562Z,20.10
2023-05-20T12:53:36.371Z,19.80
2023-05-20T12:56:05.669Z,20.00
2023-05-20T12:58:33.392Z,20.10
2023-05-20T13:01:00.780Z,19.50
2023-05-20T13:03:28.181Z,19.70
2023-05-20T13:05:55.469Z,20.10
2023-05-20T13:08:22.839Z,20.50
2023-05-20T13:10:50.142Z,20.40
2023-05-20T13:13:21.844Z,20.80
2023-05-20T13:15:51.923Z,21.10
2023-05-20T13:18:19.709Z,20.60
2023-05-20T13:20:47.346Z,20.50
2023-05-20T13:23:14.724Z,20.50
2023-05-20T13:25:42.110Z,20.90
2023-05-20T13:28:09.760Z,20.80
2023-05-20T13:30:37.368Z,20.60
2023-05-20T13:33:05.093Z,21.20
2023-05-20T13:35:32.320Z,20.80
2023-05-20T13:37:59.801Z,21.00
2023-05-20T13:40:27.095Z,20.90
2023-05-20T13:42:54.719Z,21.10
2023-05-20T13:45:23.554Z,21.00
2023-05-20T13:47:50.919Z,21.10
2023-05-20T13:50:18.357Z,21.20
2023-05-20T13:52:45.662Z,20.90
2023-05-20T13:55:13.353Z,20.90
2023-05-20T13:57:40.789Z,20.60
2023-05-20T14:00:10.148Z,20.50
2023-05-20T14:02:37.790Z,20.50
2023-05-20T14:05:07.514Z,20.70
2023-05-20T14:07:34.775Z,21.00
2023-05-20T14:10:02.352Z,20.80
2023-05-20T14:12:29.939Z,20.80
2023-05-20T14:14:58.128Z,20.50
2023-05-20T14:17:26.112Z,20.50
2023-05-20T14:19:53.651Z,20.70
2023-05-20T14:22:20.989Z,20.70
2023-05-20T14:24:48.561Z,20.80
2023-05-20T14:27:16.354Z,20.90
2023-05-20T14:29:43.732Z,20.90
2023-05-20T14:32:13.275Z,20.80
2023-05-20T14:34:40.632Z,20.80
2023-05-20T14:37:10.816Z,20.70
2023-05-20T14:39:38.813Z,20.90
2023-05-20T14:42:06.408Z,20.80
2023-05-20T14:44:34.012Z,20.70
2023-05-20T14:47:01.441Z,20.90
2023-05-20T14:49:29.051Z,20.90
2023-05-20T14:51:56.483Z,21.10
2023-05-20T14:54:25.285Z,21.30
2023-05-20T14:56:52.629Z,21.20
2023-05-20T14:59:20.117Z,21.10
2023-05-20T15:01:47.476Z,21.30
2023-05-20T15:04:14.843Z,21.40
2023-05-20T15:06:42.345Z,21.30
2023-05-20T15:09:10.350Z,21.30
2023-05-20T15:11:37.704Z,21.30
2023-05-20T15:14:05.013Z,21.20
2023-05-20T15:16:32.831Z,21.00
2023-05-20T15:19:00.372Z,21.10
2023-05-20T15:21:27.882Z,21.20
2023-05-20T15:23:55.308Z,21.10
2023-05-20T15:26:22.655Z,21.10
2023-05-20T15:28:50.071Z,21.30
2023-05-20T15:31:17.462Z,21.40
2023-05-20T15:33:44.886Z,21.30
2023-05-20T15:36:12.241Z,21.20
2023-05-20T15:38:39.601Z,21.20
2023-05-20T15:41:08.108Z,21.30
2023-05-20T15:43:35.457Z,21.30
2023-05-20T15:46:02.751Z,21.30
2023-05-20T15:48:30.126Z,21.40
2023-05-20T15:50:57.406Z,21.40
2023-05-20T15:53:24.642Z,21.40
2023-05-20T15:55:52.535Z,21.20
2023-05-20T15:58:19.985Z,21.20
2023-05-20T16:00:48.030Z,21.30
2023-05-20T16:03:16.663Z,21.30
2023-05-20T16:05:44.377Z,21.30
2023-05-20T16:08:11.842Z,21.30
2023-05-20T16:10:39.276Z,21.20
2023-05-20T16:13:06.806Z,21.20
2023-05-20T16:15:36.688Z,21.20
2023-05-20T16:18:05.516Z,21.30
2023-05-20T16:20:33.156Z,21.20
2023-05-20T16:23:00.899Z,21.30
2023-05-20T16:25:28.400Z,21.20
2023-05-20T16:27:55.856Z,21.20
2023-05-20T16:30:23.239Z,21.20
2023-05-20T16:32:50.810Z,21.20
2023-05-20T16:35:18.185Z,21.10
2023-05-20T16:37:45.876Z,21.10
2023-05-20T16:40:13.516Z,21.10
2023-05-20T16:42:42.548Z,21.00
2023-05-20T16:45:10.161Z,21.00
2023-05-20T16:47:37.631Z,21.00
2023-05-20T16:50:05.354Z,21.00
2023-05-20T16:52:37.993Z,20.90
2023-05-20T16:55:08.622Z,20.90
2023-05-20T16:57:36.534Z,20.90
2023-05-20T17:00:11.654Z,20.90
2023-05-20T17:02:39.211Z,20.80
2023-05-20T17:05:07.019Z,20.80
2023-05-20T17:07:34.339Z,20.80
2023-05-20T17:10:01.786Z,20.70
2023-05-20T17:12:29.055Z,20.70
2023-05-20T17:14:56.471Z,20.70
2023-05-20T17:17:23.775Z,20.60
2023-05-20T17:19:51.666Z,20.60
2023-05-20T17:22:18.848Z,20.50
2023-05-20T17:24:46.353Z,20.50
2023-05-20T17:27:13.884Z,20.50
2023-05-20T17:29:41.189Z,20.40
2023-05-20T17:32:08.578Z,20.40
2023-05-20T17:34:35.837Z,20.30
2023-05-20T17:37:03.190Z,20.30
2023-05-20T17:39:30.742Z,20.20
2023-05-20T17:41:57.961Z,20.10
2023-05-20T17:44:25.285Z,20.00
2023-05-20T17:46:52.766Z,19.90
2023-05-20T17:49:20.069Z,19.80
2023-05-20T17:51:47.367Z,19.70
2023-05-20T17:54:15.394Z,19.60
2023-05-20T17:56:44.687Z,19.60
2023-05-20T17:59:12.249Z,19.50
2023-05-20T18:01:39.925Z,19.40
2023-05-20T18:04:07.578Z,19.30
2023-05-20T18:06:35.000Z,19.30
2023-05-20T18:09:03.789Z,19.20
2023-05-20T18:11:34.717Z,19.10
2023-05-20T18:14:02.958Z,19.10
2023-05-20T18:16:30.900Z,19.00
2023-05-20T18:18:58.597Z,18.90
2023-05-20T18:21:26.630Z,18.80
2023-05-20T18:23:54.159Z,18.70
2023-05-20T18:26:21.893Z,18.70
2023-05-20T18:28:50.188Z,18.60
2023-05-20T18:31:17.605Z,18.50
2023-05-20T18:33:44.997Z,18.40
2023-05-20T18:36:12.266Z,18.30
2023-05-20T18:38:41.510Z,18.20
2023-05-20T18:41:09.687Z,18.20
2023-05-20T18:43:37.082Z,18.10
2023-05-20T18:46:04.461Z,18.00
2023-05-20T18:48:32.041Z,17.90
2023-05-20T18:50:59.311Z,17.80
2023-05-20T18:53:27.164Z,17.80
2023-05-20T18:55:56.365Z,17.70
2023-05-20T18:58:23.723Z,17.60
2023-05-20T19:00:51.358Z,17.50
2023-05-20T19:03:18.636Z,17.50
2023-05-20T19:05:46.026Z,17.40
2023-05-20T19:08:13.344Z,17.30
2023-05-20T19:10:41.732Z,17.30
2023-05-20T19:13:09.048Z,17.20
2023-05-20T19:15:37.044Z,17.20
2023-05-20T19:18:04.721Z,17.00
2023-05-20T19:20:34.207Z,16.70
2023-05-20T19:23:02.013Z,16.70
2023-05-20T19:25:29.253Z,16.60
2023-05-20T19:27:56.599Z,16.50
2023-05-20T19:30:23.785Z,16.40
2023-05-20T19:32:51.313Z,16.30
2023-05-20T19:35:18.577Z,16.20
2023-05-20T19:37:45.886Z,16.10
2023-05-20T19:40:13.804Z,15.90
2023-05-20T19:42:41.635Z,15.90
2023-05-20T19:45:09.629Z,16.00
2023-05-20T19:47:37.709Z,15.90
2023-05-20T19:50:05.881Z,16.00
2023-05-20T19:52:33.219Z,15.90
2023-05-20T19:55:00.989Z,15.80
2023-05-20T19:57:28.350Z,15.80
2023-05-20T19:59:56.051Z,15.60
2023-05-20T20:02:23.429Z,15.60
2023-05-20T20:04:52.046Z,15.50
2023-05-20T20:07:19.755Z,15.50
2023-05-20T20:09:48.585Z,15.60
2023-05-20T20:12:15.933Z,15.70
2023-05-20T20:14:43.330Z,15.70
2023-05-20T20:17:13.707Z,15.70
2023-05-20T20:19:42.381Z,15.70
2023-05-20T20:22:09.685Z,15.60
2023-05-20T20:24:37.212Z,15.70
2023-05-20T20:27:05.377Z,15.70
2023-05-20T20:29:32.761Z,15.60
2023-05-20T20:32:00.558Z,15.50
2023-05-20T20:34:27.891Z,15.60
2023-05-20T20:36:55.326Z,15.50
2023-05-20T20:39:25.291Z,15.50
2023-05-20T20:41:52.853Z,15.50
2023-05-20T20:44:23.431Z,15.40
2023-05-20T20:46:50.921Z,15.40
2023-05-20T20:49:19.229Z,15.30
2023-05-20T20:51:47.640Z,15.30
2023-05-20T20:54:15.096Z,15.20
2023-05-20T20:56:45.400Z,15.30
2023-05-20T20:59:17.084Z,15.30
2023-05-20T21:01:45.321Z,15.30
2023-05-20T21:04:14.100Z,15.20
2023-05-20T21:06:47.796Z,15.30
2023-05-20T21:09:15.574Z,15.30
2023-05-20T21:11:43.251Z,15.30
2023-05-20T21:14:11.764Z,15.30
2023-05-20T21:16:39.544Z,15.40
2023-05-20T21:19:06.829Z,15.30
2023-05-20T21:21:34.183Z,15.40
2023-05-20T21:24:01.593Z,15.40
2023-05-20T21:26:28.792Z,15.60
2023-05-20T21:28:56.039Z,15.60
2023-05-20T21:31:23.480Z,15.60
2023-05-20T21:33:50.951Z,15.70
2023-05-20T21:36:18.235Z,15.60
2023-05-20T21:38:46.019Z,15.70
2023-05-20T21:41:14.391Z,15.60
2023-05-20T21:43:43.393Z,15.60
2023-05-20T21:46:10.631Z,15.60
2023-05-20T21:48:37.965Z,15.60
2023-05-20T21:51:05.548Z,15.60
2023-05-20T21:53:32.908Z,15.60
2023-05-20T21:56:00.274Z,15.60
2023-05-20T21:58:27.748Z,15.50
2023-05-20T22:00:55.077Z,15.50
2023-05-20T22:03:22.471Z,15.60
2023-05-20T22:05:50.335Z,15.50
2023-05-20T22:08:17.764Z,15.50
2023-05-20T22:10:45.093Z,15.50
2023-05-20T22:13:13.828Z,15.50
2023-05-20T22:15:41.088Z,15.60
2023-05-20T22:18:09.795Z,15.50
2023-05-20T22:20:38.694Z,15.40
2023-05-20T22:23:06.074Z,15.30
2023-05-20T22:25:33.367Z,15.30
2023-05-20T22:28:01.526Z,15.20
2023-05-20T22:30:28.783Z,15.20
2023-05-20T22:32:56.543Z,15.30
2023-05-20T22:35:24.122Z,15.30
2023-05-20T22:37:51.571Z,15.20
2023-05-20T22:40:18.831Z,15.20
2023-05-20T22:42:46.377Z,15.10
2023-05-20T22:45:13.634Z,15.10
2023-05-20T22:47:40.938Z,15.00
2023-05-20T22:50:09.227Z,15.00
2023-05-20T22:52:37.142Z,14.90
2023-05-20T22:55:04.654Z,14.90
2023-05-20T22:57:32.074Z,14.90
2023-05-20T23:00:00.375Z,14.80
2023-05-20T23:02:30.652Z,14.80
2023-05-20T23:04:58.068Z,14.80
2023-05-20T23:07:25.310Z,14.80
2023-05-20T23:09:52.696Z,14.80
2023-05-20T23:12:19.932Z,14.70
2023-05-20T23:14:48.088Z,14.60
2023-05-20T23:17:15.369Z,14.60
2023-05-20T23:19:43.091Z,14.60
2023-05-20T23:22:10.490Z,14.60
2023-05-20T23:24:37.950Z,14.60
2023-05-20T23:27:06.298Z,14.60
2023-05-20T23:29:33.573Z,14.60
2023-05-20T23:32:00.967Z,14.70
2023-05-20T23:34:30.985Z,14.60
2023-05-20T23:36:58.255Z,14.60
2023-05-20T23:39:25.795Z,14.60
2023-05-20T23:41:53.068Z,14.50
2023-05-20T23:44:20.532Z,14.50
2023-05-20T23:46:49.790Z,14.50
2023-05-20T23:49:18.764Z,14.50
2023-05-20T23:51:46.293Z,14.50
2023-05-20T23:54:16.684Z,14.40
2023-05-20T23:56:44.384Z,14.40
2023-05-20T23:59:11.749Z,14.30
